首页
METAR-TAF:

METAR-TAF

机场 :

Northolt, 英格兰

纬度: 51-33N, 经度: 000-25W, 海拔: 38米

当前天气观测

该预报发布于10分钟前的11:22 UTC
风速2节,风向北转西北
温度 19°C
湿度 49%
气压 1031 hPa
能见度10公里或以上
少量云层高于4000英尺

METAR: EGWU 191122Z 34002KT 9999 FEW040 19/08 Q1031 NOSIG

时间: 12:32 (11:32 UTC)

预报

该预报发布于3小时和59分钟前的07:33 UTC
预报有效从19日的 09点(UTC)到 20日的 03点(UTC)
风速4节,风向北转东北
能见度10公里或以上
少量云层高于3000英尺

TAF: EGWU 190733Z 1909/2003 02004KT 9999 FEW030

超过4000个机场的气象观测和天气预报(METAR&TAF报告)。

可查询的气象台以黄色和红色小点在地图上表示。

将鼠标移到小点上方,可查看气象台名称。

然后点击查看天气观测和预报。

如需切换地图:点击带黑十字的绿色按钮放大地图;点击带横线的绿色按钮缩小地图;或者点击绿色箭头查看邻近地区的地图。


METAR-TAF: